Dwarf, KY (41739)

4:11 PM EDT on March 26, 2017 (GMT -0400)
MD1952 | | Change Station

Elev 862 ft 37.41 °N, 83.43 °W | Updated 2 minutes ago

Overcast
Overcast
63.0 °F
Feels Like 63.0 °F
N
4.0
Wind Variable Wind from WSW
Gusts 6.0 mph

Today
High -- | Low -- °F
--% Chance of Precip.
Yesterday
High -- | Low -- °F
Precip. -- in
Pressure 30.01 in
Visibility 0.5 miles
Clouds Mostly Cloudy 300 ft
Overcast 1800 ft
Dew Point 59 °F
Humidity 87%
Rainfall 0.07 in
Snow Depth Not available.
7:26 AM 7:50 PM
Waning Crescent, 2% visible
SPECI KJKL 262004Z AUTO VRB03KT 1/2SM +RA FG BKN003 OVC018 14/14 A3001 RMK AO2 P0023 T01440139
Pressure 30.01 in
Visibility 0.5 miles
Clouds Mostly Cloudy 300 ft
Overcast 1800 ft
Dew Point 59 °F
Humidity 87%
Rainfall 0.07 in
Snow Depth Not available.
7:26 AM 7:50 PM
Waning Crescent, 2% visible
SPECI KJKL 262004Z AUTO VRB03KT 1/2SM +RA FG BKN003 OVC018 14/14 A3001 RMK AO2 P0023 T01440139

Get Severe Weather Alerts

Thanks for signing up!

Be on the lookout for a verification email in your inbox.

You'll start receiving the daily forecast at 8 AM.

×

10-Day Weather Forecast

Almanac

Astronomy

Mar. 26, 2017 Rise Set
Actual Time
Civil Twilight
Nautical Twilight
Astronomical Twilight
Moon
Length of Visible Light
Length of Day
Tomorrow will be .
, % of the Moon is Illuminated

Today's Extremes

State Highs State Lows

Community

WunderPhotos

Upload Photos

1,962,540 photos uploaded!

WunderBlog® & News

Nearby

Air Quality

  Air Quality AQ Index Pollutant
Not available.

Snow Depth

Station Depth Elevation

Earthquake Activity

City Distance Mag. Time & Date
Minimum magnitude displayed is 2.5.

Earthquake Activity

City Distance Mag. Time & Date
Minimum magnitude displayed is 2.5.

Coastal Water Temperatures

Place Temperature

Stations

Nearby Weather Stations

Station Location Temp. Windchill Dew Point Humidity Wind Precip. Elev Updated Type
                   

Watches & Warnings

There are currently no watches in effect.